Time;durP1;ratioP1;P1;durP2;ratioP2;P2;SDS_P1;SDS_P2;PMS_P1;PMS_P2;Temp;Humidity;BMP_temperature;BMP_pressure;BME280_temperature;BME280_humidity;BME280_pressure;Samples;Min_cycle;Max_cycle;Signal;HPM_P1;HPM_P2
2022/12/02 00:01:02;;;;;;;39.58;29.73;;;5.20;99.90;;;;;;5139292;27;20305;-78
2022/12/02 00:03:30;;;;;;;39.30;27.92;;;5.10;99.90;;;;;;5131441;27;20210;-77
2022/12/02 00:05:57;;;;;;;38.05;28.10;;;5.20;99.90;;;;;;5130293;28;20225;-76
2022/12/02 00:08:30;;;;;;;39.63;26.90;;;5.20;99.90;;;;;;5096949;27;20226;-77
2022/12/02 00:11:01;;;;;;;39.53;27.75;;;5.20;99.90;;;;;;5135082;27;20210;-78
2022/12/02 00:13:32;;;;;;;40.33;27.35;;;5.20;99.90;;;;;;5129584;28;20225;-77
2022/12/02 00:16:02;;;;;;;40.97;27.02;;;5.20;99.90;;;;;;5126737;28;20237;-78
2022/12/02 00:18:29;;;;;;;47.78;28.30;;;5.20;99.90;;;;;;5131683;28;20259;-77
2022/12/02 00:20:56;;;;;;;39.55;28.02;;;5.20;99.90;;;;;;5133066;28;20240;-76
2022/12/02 00:23:24;;;;;;;40.10;25.80;;;5.20;99.90;;;;;;5128815;27;20226;-76
2022/12/02 00:25:54;;;;;;;39.15;27.33;;;5.20;99.90;;;;;;5133376;28;20222;-77
2022/12/02 00:28:21;;;;;;;39.92;27.98;;;5.10;99.90;;;;;;5121448;28;20225;-78
2022/12/02 00:30:49;;;;;;;43.75;27.85;;;5.10;99.90;;;;;;5133366;28;20225;-78
2022/12/02 00:33:17;;;;;;;41.88;27.05;;;5.10;99.90;;;;;;5134634;28;20235;-77
2022/12/02 00:35:45;;;;;;;41.28;26.85;;;5.10;99.90;;;;;;5133268;28;20942;-77
2022/12/02 00:38:12;;;;;;;40.75;26.63;;;5.10;99.90;;;;;;5135161;27;20320;-78
2022/12/02 00:40:39;;;;;;;38.90;28.55;;;5.10;99.90;;;;;;5120354;28;20307;-77
2022/12/02 00:48:36;;;;;;;37.53;26.55;;;5.10;99.90;;;;;;5133319;28;20228;-76
2022/12/02 00:51:04;;;;;;;38.42;25.90;;;5.10;99.90;;;;;;5133959;28;20222;-77
2022/12/02 00:53:31;;;;;;;43.15;30.05;;;5.10;99.90;;;;;;5135337;28;20582;-77
2022/12/02 00:55:58;;;;;;;40.22;27.58;;;5.10;99.90;;;;;;5143293;27;20218;-78
2022/12/02 00:58:25;;;;;;;42.88;28.00;;;5.10;99.90;;;;;;5134923;28;20256;-77
2022/12/02 01:00:52;;;;;;;40.55;27.27;;;5.10;99.90;;;;;;5134392;28;20701;-76
2022/12/02 01:03:19;;;;;;;43.03;28.50;;;5.10;99.90;;;;;;5134418;28;20218;-77
2022/12/02 01:05:47;;;;;;;43.55;29.20;;;5.10;99.90;;;;;;5134549;27;20218;-77
2022/12/02 01:08:14;;;;;;;42.05;27.95;;;5.10;99.90;;;;;;5137836;27;20218;-77
2022/12/02 01:10:41;;;;;;;39.45;26.13;;;5.10;99.90;;;;;;5138561;27;20648;-77
2022/12/02 01:13:08;;;;;;;42.17;31.85;;;5.10;99.90;;;;;;5139810;27;20245;-76
2022/12/02 01:15:35;;;;;;;39.70;26.85;;;5.10;99.90;;;;;;5139681;27;20760;-76
2022/12/02 01:18:02;;;;;;;38.22;27.70;;;5.10;99.90;;;;;;5140608;27;20218;-77
2022/12/02 01:20:29;;;;;;;38.45;28.45;;;5.10;99.90;;;;;;5139569;27;20298;-78
2022/12/02 01:22:57;;;;;;;39.17;26.33;;;5.10;99.90;;;;;;5139524;27;20230;-77
2022/12/02 01:25:25;;;;;;;45.00;28.20;;;5.10;99.90;;;;;;5138762;27;20229;-77
2022/12/02 01:27:52;;;;;;;40.83;25.10;;;5.10;99.90;;;;;;5138179;27;20236;-77
2022/12/02 01:30:19;;;;;;;40.13;27.70;;;5.10;99.90;;;;;;5139937;27;20624;-77
2022/12/02 01:32:46;;;;;;;38.85;27.92;;;5.10;99.90;;;;;;5140409;27;20222;-77
2022/12/02 01:35:14;;;;;;;43.70;29.25;;;5.10;99.90;;;;;;5140245;27;20214;-78
2022/12/02 01:37:41;;;;;;;40.75;27.80;;;5.10;99.90;;;;;;5140067;27;20218;-78
2022/12/02 01:40:12;;;;;;;42.53;27.65;;;5.10;99.90;;;;;;5138040;27;20248;-78
2022/12/02 01:42:40;;;;;;;42.47;29.25;;;5.20;99.90;;;;;;5136616;27;20225;-78
2022/12/02 01:45:09;;;;;;;39.58;27.15;;;5.10;99.90;;;;;;5140003;27;20683;-78
2022/12/02 01:47:36;;;;;;;39.78;27.38;;;5.10;99.90;;;;;;5141527;27;20233;-78
2022/12/02 01:50:05;;;;;;;37.45;25.27;;;5.10;99.90;;;;;;5138175;27;20287;-78
2022/12/02 01:52:32;;;;;;;38.67;27.73;;;5.10;99.90;;;;;;5137983;27;20245;-78
2022/12/02 01:54:59;;;;;;;37.25;26.50;;;5.10;99.90;;;;;;5137903;27;20257;-77
2022/12/02 01:57:31;;;;;;;41.22;28.67;;;5.20;99.90;;;;;;5139635;27;20214;-77
2022/12/02 01:59:58;;;;;;;44.17;28.45;;;5.20;99.90;;;;;;5138669;27;20260;-77
2022/12/02 02:02:27;;;;;;;39.60;27.60;;;5.20;99.90;;;;;;5140597;27;20222;-78
2022/12/02 02:04:57;;;;;;;38.72;27.05;;;5.20;99.90;;;;;;5138054;27;20221;-77
2022/12/02 02:07:24;;;;;;;43.42;28.20;;;5.10;99.90;;;;;;5138173;27;20257;-77
2022/12/02 02:09:51;;;;;;;41.58;28.05;;;5.10;99.90;;;;;;5135029;27;20234;-77
2022/12/02 02:12:18;;;;;;;47.80;28.65;;;5.10;99.90;;;;;;5135964;27;20241;-77
2022/12/02 02:14:47;;;;;;;39.15;28.90;;;5.20;99.90;;;;;;5135698;27;20221;-77
2022/12/02 02:17:14;;;;;;;36.50;27.05;;;5.10;99.90;;;;;;5135798;27;20264;-77
2022/12/02 02:19:42;;;;;;;37.35;25.48;;;5.20;99.90;;;;;;5135430;27;20706;-77
2022/12/02 02:22:14;;;;;;;41.33;29.05;;;5.20;99.90;;;;;;5135913;27;20218;-76
2022/12/02 02:24:43;;;;;;;38.22;25.75;;;5.20;99.90;;;;;;5135175;27;20248;-75
2022/12/02 02:27:10;;;;;;;38.50;28.52;;;5.20;99.90;;;;;;5134457;27;20271;-75
2022/12/02 02:29:37;;;;;;;41.00;29.05;;;5.20;99.90;;;;;;5135429;27;20317;-78
2022/12/02 02:32:04;;;;;;;41.95;28.85;;;5.10;99.90;;;;;;5134948;27;20218;-77
2022/12/02 02:34:31;;;;;;;37.88;27.10;;;5.10;99.90;;;;;;5135766;27;20218;-76
2022/12/02 02:36:59;;;;;;;40.70;27.80;;;5.10;99.90;;;;;;5134926;27;20249;-77
2022/12/02 02:39:26;;;;;;;36.90;26.38;;;5.10;99.90;;;;;;5135106;27;20249;-77
2022/12/02 02:41:55;;;;;;;36.45;26.33;;;5.00;99.90;;;;;;5135231;27;20248;-77
2022/12/02 02:44:23;;;;;;;38.33;25.63;;;5.10;99.90;;;;;;5134703;27;20222;-76
2022/12/02 02:46:50;;;;;;;39.13;27.23;;;5.10;99.90;;;;;;5135069;27;20286;-77
2022/12/02 02:49:17;;;;;;;37.45;25.27;;;5.10;99.90;;;;;;5136104;27;20691;-77
2022/12/02 02:51:44;;;;;;;35.95;24.67;;;5.10;99.90;;;;;;5135524;27;20237;-77
2022/12/02 02:54:11;;;;;;;35.67;29.35;;;5.10;99.90;;;;;;5135697;27;20245;-77
2022/12/02 02:56:38;;;;;;;42.70;28.88;;;5.10;99.90;;;;;;5135466;27;20218;-77
2022/12/02 02:59:06;;;;;;;46.17;27.02;;;5.20;99.90;;;;;;5133925;27;20222;-77
2022/12/02 03:01:36;;;;;;;42.63;25.50;;;5.20;99.90;;;;;;5134832;27;20700;-77
2022/12/02 03:04:07;;;;;;;37.58;27.50;;;5.20;99.90;;;;;;5134143;27;20296;-77
2022/12/02 03:06:36;;;;;;;39.47;28.17;;;5.20;99.90;;;;;;5139059;27;20221;-74
2022/12/02 03:09:06;;;;;;;39.20;26.83;;;5.20;99.90;;;;;;5143967;27;20232;-79
2022/12/02 03:11:34;;;;;;;37.92;27.67;;;5.20;99.90;;;;;;5153600;27;20214;-76
2022/12/02 03:14:02;;;;;;;34.75;24.73;;;5.20;99.90;;;;;;5151144;27;20240;-78
2022/12/02 03:16:31;;;;;;;36.05;24.50;;;5.20;99.90;;;;;;5152377;27;20225;-77
2022/12/02 03:18:58;;;;;;;40.45;28.02;;;5.20;99.90;;;;;;5151960;27;20226;-77
2022/12/02 03:21:27;;;;;;;38.17;26.20;;;5.10;99.90;;;;;;5147427;27;20222;-76
2022/12/02 03:23:57;;;;;;;38.10;26.52;;;5.10;99.90;;;;;;5147440;27;20237;-77
2022/12/02 03:26:27;;;;;;;40.88;28.05;;;5.10;99.90;;;;;;5140842;27;20217;-78
2022/12/02 03:28:54;;;;;;;37.00;27.08;;;5.10;99.90;;;;;;5145558;27;20312;-77
2022/12/02 03:31:22;;;;;;;40.83;26.00;;;5.10;99.90;;;;;;5141704;27;20214;-77
2022/12/02 03:33:51;;;;;;;40.15;27.30;;;5.10;99.90;;;;;;5140313;27;20724;-75
2022/12/02 03:36:18;;;;;;;35.83;25.08;;;5.10;99.90;;;;;;5139875;27;20248;-76
2022/12/02 03:38:46;;;;;;;43.20;28.95;;;5.20;99.90;;;;;;5139382;27;20290;-77
2022/12/02 03:41:14;;;;;;;39.35;26.45;;;5.10;99.90;;;;;;5137631;27;20222;-75
2022/12/02 03:43:41;;;;;;;34.17;24.35;;;5.10;99.90;;;;;;5134130;27;20262;-75
2022/12/02 03:46:09;;;;;;;36.97;24.73;;;5.10;99.90;;;;;;5133554;27;20233;-75
2022/12/02 03:48:37;;;;;;;36.55;25.63;;;5.10;99.90;;;;;;5134346;27;20320;-76
2022/12/02 03:51:07;;;;;;;33.88;23.85;;;5.20;99.90;;;;;;5133459;27;22520;-75
2022/12/02 03:53:38;;;;;;;31.73;22.08;;;5.20;99.90;;;;;;5133571;27;20682;-76
2022/12/02 03:56:07;;;;;;;31.77;23.23;;;5.20;99.90;;;;;;5133123;27;20230;-75
2022/12/02 03:58:36;;;;;;;33.05;23.48;;;5.20;99.90;;;;;;5133551;27;20218;-75
2022/12/02 04:01:03;;;;;;;34.65;24.52;;;5.20;99.90;;;;;;5133604;27;20287;-76
2022/12/02 04:03:32;;;;;;;33.38;23.63;;;5.10;99.90;;;;;;5134197;28;20689;-76
2022/12/02 04:05:59;;;;;;;30.52;22.10;;;5.10;99.90;;;;;;5133430;28;20226;-76
2022/12/02 04:08:27;;;;;;;33.72;25.67;;;5.10;99.90;;;;;;5134127;28;20300;-75
2022/12/02 04:10:54;;;;;;;37.67;23.92;;;5.10;99.90;;;;;;5134613;28;20742;-76
2022/12/02 04:13:21;;;;;;;34.08;23.00;;;5.00;99.90;;;;;;5135394;28;20725;-76
2022/12/02 04:15:48;;;;;;;28.88;21.55;;;5.00;99.90;;;;;;5134794;28;20245;-76
2022/12/02 04:18:15;;;;;;;33.75;24.02;;;5.00;99.90;;;;;;5135435;28;20674;-76
2022/12/02 04:20:42;;;;;;;29.55;22.45;;;5.00;99.90;;;;;;5135769;28;20275;-76
2022/12/02 04:23:09;;;;;;;31.60;23.13;;;5.00;99.90;;;;;;5136325;28;20250;-76
2022/12/02 04:25:37;;;;;;;28.73;21.95;;;5.00;99.90;;;;;;5135309;28;20336;-75
2022/12/02 04:28:04;;;;;;;33.40;23.23;;;5.00;99.90;;;;;;5134140;28;20226;-76
2022/12/02 04:30:31;;;;;;;32.78;22.45;;;5.00;99.90;;;;;;5134934;28;20213;-75
2022/12/02 04:32:59;;;;;;;30.17;23.88;;;5.10;99.90;;;;;;5135414;28;20283;-75
2022/12/02 04:35:26;;;;;;;31.33;22.27;;;5.10;99.90;;;;;;5136539;28;20218;-75
2022/12/02 04:37:54;;;;;;;34.83;24.48;;;5.10;99.90;;;;;;5138233;28;20597;-75
2022/12/02 04:40:22;;;;;;;33.35;21.80;;;5.10;99.90;;;;;;5137415;27;20613;-75
2022/12/02 04:42:51;;;;;;;29.67;21.50;;;5.10;99.90;;;;;;5141057;27;20233;-75
2022/12/02 04:45:19;;;;;;;30.30;21.55;;;5.10;99.90;;;;;;5140157;27;20229;-75
2022/12/02 04:47:46;;;;;;;30.40;24.48;;;5.10;99.90;;;;;;5145094;27;20233;-75
2022/12/02 04:50:13;;;;;;;29.27;21.55;;;5.20;99.90;;;;;;5144945;27;20226;-75
2022/12/02 04:52:40;;;;;;;30.35;22.27;;;5.20;99.90;;;;;;5147408;27;20225;-76
2022/12/02 04:55:08;;;;;;;32.50;23.13;;;5.10;99.90;;;;;;5147805;27;20233;-75
2022/12/02 04:57:35;;;;;;;29.92;21.40;;;5.20;99.90;;;;;;5144720;27;20222;-75
2022/12/02 05:00:04;;;;;;;32.75;23.65;;;5.10;99.90;;;;;;5143683;27;20713;-75
2022/12/02 05:02:31;;;;;;;26.50;20.27;;;5.10;99.90;;;;;;5143478;27;20218;-75
2022/12/02 05:04:58;;;;;;;33.10;22.77;;;5.10;99.90;;;;;;5142548;27;20291;-76
2022/12/02 05:07:25;;;;;;;28.38;21.88;;;5.10;99.90;;;;;;5144997;27;20332;-75
2022/12/02 05:09:52;;;;;;;30.00;22.45;;;5.10;99.90;;;;;;5144346;27;20722;-75
2022/12/02 05:12:19;;;;;;;29.30;21.20;;;5.10;99.90;;;;;;5143596;27;20218;-75
2022/12/02 05:14:46;;;;;;;28.40;21.55;;;5.10;99.90;;;;;;5142549;27;20693;-75
2022/12/02 05:17:15;;;;;;;29.13;21.65;;;5.10;99.90;;;;;;5140008;27;20252;-77
2022/12/02 05:19:42;;;;;;;29.27;21.15;;;5.10;99.90;;;;;;5140336;27;20226;-75
2022/12/02 05:22:09;;;;;;;28.27;20.83;;;5.10;99.90;;;;;;5137126;27;20241;-76
2022/12/02 05:24:36;;;;;;;27.45;18.90;;;5.10;99.90;;;;;;5137314;27;20251;-75
2022/12/02 05:27:03;;;;;;;28.38;20.80;;;5.10;99.90;;;;;;5136426;27;20676;-76
2022/12/02 05:29:30;;;;;;;27.58;17.92;;;5.10;99.90;;;;;;5136599;27;20218;-76
2022/12/02 05:31:58;;;;;;;25.63;19.98;;;5.10;99.90;;;;;;5136377;27;20234;-76
2022/12/02 05:34:26;;;;;;;26.77;19.45;;;5.10;99.90;;;;;;5136696;27;20529;-76
2022/12/02 05:36:53;;;;;;;25.45;20.38;;;5.00;99.90;;;;;;5136515;27;20222;-76
2022/12/02 05:39:20;;;;;;;30.20;21.95;;;5.00;99.90;;;;;;5135609;27;20290;-76
2022/12/02 05:41:48;;;;;;;26.05;21.08;;;5.00;99.90;;;;;;5136368;27;20257;-76
2022/12/02 05:44:20;;;;;;;29.55;20.88;;;5.00;99.90;;;;;;5135870;27;20237;-76
2022/12/02 05:46:48;;;;;;;26.63;20.90;;;5.00;99.90;;;;;;5136311;27;20226;-76
2022/12/02 05:49:18;;;;;;;25.98;18.45;;;5.00;99.90;;;;;;5135847;27;20230;-76
2022/12/02 05:51:47;;;;;;;26.65;20.48;;;5.00;99.90;;;;;;5136287;27;20229;-76
2022/12/02 05:54:19;;;;;;;27.55;19.70;;;5.00;99.90;;;;;;5134788;27;20252;-76
2022/12/02 05:56:47;;;;;;;25.10;18.50;;;5.00;99.90;;;;;;5136033;27;20271;-76
2022/12/02 05:59:16;;;;;;;25.52;18.40;;;5.00;99.90;;;;;;5135209;27;20291;-76
2022/12/02 06:01:48;;;;;;;25.70;18.67;;;5.00;99.90;;;;;;5136064;27;20229;-76
2022/12/02 06:04:18;;;;;;;26.98;20.40;;;5.00;99.90;;;;;;5135285;27;20305;-76
2022/12/02 06:06:47;;;;;;;28.90;20.98;;;5.10;99.90;;;;;;5135397;27;20249;-76
2022/12/02 06:09:15;;;;;;;28.75;18.38;;;5.00;99.90;;;;;;5135192;27;20258;-76
2022/12/02 06:11:44;;;;;;;30.00;20.50;;;5.00;99.90;;;;;;5135564;27;20222;-76
2022/12/02 06:14:16;;;;;;;23.42;18.77;;;5.00;99.90;;;;;;5135594;27;20732;-76
2022/12/02 06:16:47;;;;;;;23.65;18.23;;;5.00;99.90;;;;;;5135892;27;20610;-76
2022/12/02 06:19:30;;;;;;;24.15;19.90;;;5.00;99.90;;;;;;5135846;27;20222;-78
2022/12/02 06:22:01;;;;;;;28.85;21.30;;;4.90;99.90;;;;;;5136390;27;20230;-78
2022/12/02 06:24:31;;;;;;;25.33;19.17;;;4.90;99.90;;;;;;5127443;27;20656;-77
2022/12/02 06:27:00;;;;;;;23.98;17.85;;;4.90;99.90;;;;;;5136003;27;20225;-76
2022/12/02 06:29:29;;;;;;;26.77;19.08;;;4.90;99.90;;;;;;5135088;27;20218;-78
2022/12/02 06:31:57;;;;;;;28.38;18.65;;;4.90;99.90;;;;;;5136288;27;20252;-78
2022/12/02 06:34:34;;;;;;;28.42;19.10;;;4.90;99.90;;;;;;5135974;27;20616;-78
2022/12/02 06:37:13;;;;;;;26.30;17.88;;;4.90;99.90;;;;;;5136215;27;20222;-78
2022/12/02 06:39:40;;;;;;;23.70;18.42;;;4.90;99.90;;;;;;5136228;27;20233;-78
2022/12/02 06:42:19;;;;;;;23.05;16.67;;;4.90;99.90;;;;;;5135640;27;20256;-79
2022/12/02 06:45:04;;;;;;;21.90;17.90;;;4.90;99.90;;;;;;5135745;27;20303;-77
2022/12/02 06:48:14;;;;;;;23.77;17.55;;;4.90;99.90;;;;;;5136976;27;20282;-76
2022/12/02 06:50:42;;;;;;;24.17;19.73;;;4.90;99.90;;;;;;5116080;28;20250;-78
2022/12/02 06:53:32;;;;;;;24.30;18.92;;;4.90;99.90;;;;;;5116558;28;20713;-78
2022/12/02 06:56:02;;;;;;;25.90;19.52;;;4.90;99.90;;;;;;5114615;28;20616;-76
2022/12/02 06:58:36;;;;;;;24.15;17.17;;;4.90;99.90;;;;;;5114449;28;20230;-77
2022/12/02 07:01:31;;;;;;;23.58;16.67;;;4.90;99.90;;;;;;5115188;28;20218;-78
2022/12/02 07:04:21;;;;;;;23.38;18.48;;;4.90;99.90;;;;;;5104475;28;20222;-77
2022/12/02 07:06:51;;;;;;;22.75;16.95;;;4.90;99.90;;;;;;5114421;28;20226;-77
2022/12/02 07:09:24;;;;;;;26.40;18.17;;;4.90;99.90;;;;;;5114087;28;20314;-75
2022/12/02 07:11:53;;;;;;;25.73;18.00;;;4.90;99.90;;;;;;5113636;28;20223;-76
2022/12/02 07:14:46;;;;;;;24.58;18.50;;;4.80;99.90;;;;;;5114016;28;20219;-77
2022/12/02 07:17:26;;;;;;;23.10;18.52;;;4.80;99.90;;;;;;5125736;27;20301;-75
2022/12/02 07:20:21;;;;;;;22.63;16.27;;;4.80;99.90;;;;;;5124080;27;20226;-78
2022/12/02 07:22:50;;;;;;;26.20;18.17;;;4.80;99.90;;;;;;5134009;27;20696;-77
2022/12/02 07:25:32;;;;;;;24.85;18.23;;;4.70;99.90;;;;;;5134095;27;20604;-77
2022/12/02 07:27:59;;;;;;;23.92;17.70;;;4.70;99.90;;;;;;5133257;27;20286;-76
2022/12/02 07:30:30;;;;;;;24.75;18.25;;;4.70;99.90;;;;;;5134877;27;20245;-78
2022/12/02 07:32:58;;;;;;;24.55;16.83;;;4.70;99.90;;;;;;5133399;27;20695;-76
2022/12/02 07:35:25;;;;;;;26.30;19.70;;;4.70;99.90;;;;;;5134230;27;20324;-76
2022/12/02 07:37:52;;;;;;;25.98;18.00;;;4.60;99.90;;;;;;5125313;27;20218;-77
2022/12/02 07:40:20;;;;;;;24.00;17.63;;;4.60;99.90;;;;;;5134763;27;20605;-77
2022/12/02 07:42:49;;;;;;;25.98;17.85;;;4.70;99.90;;;;;;5134684;27;20279;-77
2022/12/02 07:45:17;;;;;;;22.58;17.45;;;4.70;99.90;;;;;;5134521;27;20222;-77
2022/12/02 07:47:45;;;;;;;26.00;17.42;;;4.80;99.90;;;;;;5134791;27;20278;-77
2022/12/02 07:50:14;;;;;;;23.50;17.13;;;4.80;99.90;;;;;;5134771;27;20226;-78
2022/12/02 07:52:41;;;;;;;25.55;18.50;;;4.80;99.90;;;;;;5134184;27;20222;-78
2022/12/02 07:55:09;;;;;;;27.48;18.63;;;4.80;99.90;;;;;;5133903;27;20225;-78
2022/12/02 07:57:36;;;;;;;21.80;16.15;;;4.80;99.90;;;;;;5134774;27;20229;-78
2022/12/02 08:00:07;;;;;;;22.50;17.70;;;4.80;99.90;;;;;;5134271;27;20308;-78
2022/12/02 08:02:34;;;;;;;27.08;19.60;;;4.80;99.90;;;;;;5134190;27;20313;-78
2022/12/02 08:05:01;;;;;;;27.27;18.63;;;4.80;99.90;;;;;;5133918;27;20226;-77
2022/12/02 08:07:30;;;;;;;24.90;18.85;;;4.80;99.90;;;;;;5134383;28;20232;-78
2022/12/02 08:09:57;;;;;;;29.75;18.05;;;4.80;99.90;;;;;;5134138;28;20225;-78
2022/12/02 08:12:24;;;;;;;26.88;19.00;;;4.80;99.90;;;;;;5124323;28;20248;-78
2022/12/02 08:14:51;;;;;;;27.13;17.90;;;4.80;99.90;;;;;;5130852;28;20230;-78
2022/12/02 08:17:19;;;;;;;25.58;17.23;;;4.70;99.90;;;;;;5136633;27;20236;-76
2022/12/02 08:19:46;;;;;;;28.42;18.35;;;4.70;99.90;;;;;;5138526;27;20242;-76
2022/12/02 08:22:13;;;;;;;23.88;17.85;;;4.70;99.90;;;;;;5126426;27;20594;-77
2022/12/02 08:24:40;;;;;;;24.67;18.75;;;4.70;99.90;;;;;;5139199;27;20233;-78
2022/12/02 08:27:07;;;;;;;21.42;16.13;;;4.70;99.90;;;;;;5137608;27;20274;-76
2022/12/02 08:29:34;;;;;;;26.95;18.10;;;4.70;99.90;;;;;;5138407;27;20270;-78
2022/12/02 08:32:01;;;;;;;27.35;17.38;;;4.70;99.90;;;;;;5138260;27;20501;-76
2022/12/02 08:34:30;;;;;;;27.38;18.50;;;4.70;99.90;;;;;;5138072;27;20218;-77
2022/12/02 08:37:03;;;;;;;31.48;19.75;;;4.70;99.90;;;;;;5111665;27;20249;-77
2022/12/02 08:39:30;;;;;;;25.20;17.25;;;4.70;99.90;;;;;;5124098;22;20224;-77
2022/12/02 08:41:57;;;;;;;24.70;17.77;;;4.70;99.90;;;;;;5075182;28;20238;-77
2022/12/02 08:44:24;;;;;;;30.08;21.35;;;4.70;99.90;;;;;;5077741;28;20251;-76
2022/12/02 08:46:51;;;;;;;24.70;18.30;;;4.70;99.90;;;;;;5079626;28;20368;-76
2022/12/02 08:49:20;;;;;;;23.63;16.90;;;4.70;99.90;;;;;;5082864;28;20227;-76
2022/12/02 08:51:48;;;;;;;28.00;18.13;;;4.80;99.90;;;;;;5085840;28;20223;-78
2022/12/02 08:54:16;;;;;;;24.20;18.20;;;4.80;99.90;;;;;;5096546;28;20242;-77
2022/12/02 08:56:45;;;;;;;26.05;17.95;;;4.80;99.90;;;;;;5097462;28;20703;-77
2022/12/02 08:59:12;;;;;;;29.92;17.70;;;4.80;99.90;;;;;;5096902;28;20254;-77
2022/12/02 09:01:40;;;;;;;25.90;18.50;;;4.80;99.90;;;;;;5097289;28;20234;-77
2022/12/02 09:04:07;;;;;;;27.67;18.83;;;4.70;99.90;;;;;;5095714;28;20258;-76
2022/12/02 09:06:34;;;;;;;26.00;15.85;;;4.80;99.90;;;;;;5096000;28;20234;-76
2022/12/02 09:09:03;;;;;;;26.45;18.27;;;4.80;99.90;;;;;;5096082;28;20319;-76
2022/12/02 09:11:30;;;;;;;25.95;17.55;;;4.80;99.90;;;;;;5095784;28;20219;-75
2022/12/02 09:13:57;;;;;;;29.25;18.65;;;4.80;99.90;;;;;;5095726;28;20315;-75
2022/12/02 09:16:24;;;;;;;23.25;17.17;;;4.80;99.90;;;;;;5095374;28;20676;-75
2022/12/02 09:18:51;;;;;;;26.58;16.63;;;4.90;99.90;;;;;;5094997;28;20292;-76
2022/12/02 09:21:21;;;;;;;25.23;17.85;;;4.80;99.90;;;;;;5095263;28;20693;-76
2022/12/02 09:23:48;;;;;;;22.40;17.50;;;4.90;99.90;;;;;;5097190;28;20254;-78
2022/12/02 09:26:19;;;;;;;26.13;18.50;;;4.90;99.90;;;;;;5094933;28;20254;-77
2022/12/02 09:28:46;;;;;;;22.50;16.98;;;4.90;99.90;;;;;;5094927;28;20250;-76
2022/12/02 09:31:14;;;;;;;25.45;18.17;;;4.90;99.90;;;;;;5095228;28;20223;-78
2022/12/02 09:33:41;;;;;;;26.67;18.70;;;4.90;99.90;;;;;;5096535;28;20227;-76
2022/12/02 09:36:09;;;;;;;24.15;16.70;;;5.00;99.90;;;;;;5095988;28;20254;-77
2022/12/02 09:38:36;;;;;;;25.40;19.15;;;5.00;99.90;;;;;;5094921;28;20276;-76
2022/12/02 09:41:04;;;;;;;28.77;18.55;;;5.00;99.90;;;;;;5084857;28;20230;-78
2022/12/02 09:43:36;;;;;;;26.35;17.95;;;5.00;99.90;;;;;;5094751;28;20246;-75
2022/12/02 09:46:05;;;;;;;24.83;17.60;;;5.10;99.90;;;;;;5084597;28;20219;-76
2022/12/02 09:48:32;;;;;;;26.45;18.05;;;5.10;99.90;;;;;;5093960;28;20639;-76
2022/12/02 09:51:04;;;;;;;28.33;19.60;;;5.10;99.90;;;;;;5095677;28;20219;-75
2022/12/02 09:53:33;;;;;;;25.48;18.40;;;5.10;99.90;;;;;;5095308;28;20652;-77
2022/12/02 09:56:01;;;;;;;28.02;19.88;;;5.10;99.90;;;;;;5095689;28;20276;-77
2022/12/02 09:58:28;;;;;;;24.20;17.35;;;5.00;99.90;;;;;;5095136;28;20302;-76
2022/12/02 10:00:57;;;;;;;29.30;19.15;;;5.00;99.90;;;;;;5091284;28;20680;-76
2022/12/02 10:03:28;;;;;;;33.63;18.77;;;5.00;99.90;;;;;;5095265;28;20730;-77
2022/12/02 10:05:55;;;;;;;24.23;17.38;;;5.00;99.90;;;;;;5095068;28;20219;-77
2022/12/02 10:08:27;;;;;;;25.25;17.15;;;4.90;99.90;;;;;;5095457;28;20223;-76
2022/12/02 10:10:56;;;;;;;30.48;19.48;;;5.00;99.90;;;;;;5094828;28;20253;-75
2022/12/02 10:13:24;;;;;;;28.08;18.58;;;4.90;99.90;;;;;;5096024;28;20215;-77
2022/12/02 10:15:52;;;;;;;29.17;18.20;;;5.00;99.90;;;;;;5097873;28;20287;-76
2022/12/02 10:18:24;;;;;;;28.08;18.75;;;4.90;99.90;;;;;;5095791;28;20247;-76
2022/12/02 10:20:51;;;;;;;28.08;19.40;;;4.90;99.90;;;;;;5086667;28;20543;-76
2022/12/02 10:23:20;;;;;;;30.40;19.92;;;4.90;99.90;;;;;;5095466;28;20707;-77
2022/12/02 10:25:48;;;;;;;23.30;17.83;;;4.80;99.90;;;;;;5094552;28;20235;-77
2022/12/02 10:28:22;;;;;;;25.63;17.90;;;4.80;99.90;;;;;;5095026;28;20275;-76
2022/12/02 10:30:51;;;;;;;33.28;21.75;;;4.80;99.90;;;;;;5094407;28;20280;-76
2022/12/02 10:33:24;;;;;;;30.85;21.83;;;4.80;99.90;;;;;;5085791;28;20233;-76
2022/12/02 10:35:53;;;;;;;27.92;18.70;;;4.80;99.90;;;;;;5095036;28;20223;-77
2022/12/02 10:38:37;;;;;;;32.38;20.08;;;4.70;99.90;;;;;;5094746;28;20223;-76
2022/12/02 10:41:18;;;;;;;28.25;19.13;;;4.70;99.90;;;;;;5074487;28;20610;-75
2022/12/02 10:44:01;;;;;;;30.90;20.05;;;4.60;99.90;;;;;;5073356;28;20322;-76
2022/12/02 10:46:29;;;;;;;28.10;18.58;;;4.70;99.90;;;;;;5076716;28;20278;-77
2022/12/02 10:49:23;;;;;;;31.92;20.27;;;4.70;99.90;;;;;;5075451;28;20246;-77
2022/12/02 10:51:54;;;;;;;30.00;19.83;;;4.70;99.90;;;;;;5076726;28;20227;-76
2022/12/02 10:54:25;;;;;;;31.20;20.02;;;4.80;99.90;;;;;;5077668;28;20238;-78
2022/12/02 10:56:54;;;;;;;33.00;21.95;;;4.80;99.90;;;;;;5077489;28;20234;-76
2022/12/02 10:59:22;;;;;;;33.90;22.25;;;4.80;99.90;;;;;;5075821;28;20232;-76
2022/12/02 11:01:57;;;;;;;34.97;22.50;;;4.80;99.90;;;;;;5083792;28;20281;-78
2022/12/02 11:04:25;;;;;;;30.67;20.13;;;4.70;99.90;;;;;;5057765;28;20223;-78
2022/12/02 11:06:59;;;;;;;30.55;19.80;;;4.70;99.90;;;;;;5083745;28;20240;-77
2022/12/02 11:09:26;;;;;;;33.67;21.40;;;4.70;99.90;;;;;;5087565;28;20231;-76
2022/12/02 11:11:53;;;;;;;32.88;21.45;;;4.70;99.90;;;;;;5089833;28;20212;-77
2022/12/02 11:14:55;;;;;;;39.95;24.52;;;4.70;99.90;;;;;;5088721;28;20224;-77
2022/12/02 11:17:56;;;;;;;35.35;22.73;;;4.60;99.90;;;;;;5084135;28;20216;-77
2022/12/02 11:20:36;;;;;;;37.35;23.02;;;4.60;99.90;;;;;;5082210;28;20239;-75
2022/12/02 11:23:24;;;;;;;37.63;23.58;;;4.60;99.90;;;;;;5087779;28;20239;-78
2022/12/02 11:26:05;;;;;;;37.47;23.88;;;4.50;99.90;;;;;;5089870;28;20223;-77
2022/12/02 11:28:52;;;;;;;38.28;22.90;;;4.60;99.90;;;;;;5083328;28;20666;-77
2022/12/02 11:31:31;;;;;;;37.58;23.25;;;4.60;99.90;;;;;;5068683;28;20228;-76
2022/12/02 11:34:26;;;;;;;38.13;22.85;;;4.60;99.90;;;;;;5081097;28;20230;-78
2022/12/02 11:37:32;;;;;;;38.35;25.23;;;4.50;99.90;;;;;;5076795;28;20286;-76
2022/12/02 11:40:02;;;;;;;40.45;23.90;;;4.50;99.90;;;;;;5086426;28;20302;-75
2022/12/02 11:42:31;;;;;;;41.38;24.77;;;4.50;99.90;;;;;;5093924;28;20285;-76
2022/12/02 11:45:13;;;;;;;38.60;24.10;;;4.50;99.90;;;;;;5081790;28;20234;-76
2022/12/02 11:47:40;;;;;;;34.33;23.38;;;4.60;99.90;;;;;;5094462;28;20247;-77
2022/12/02 11:50:29;;;;;;;39.35;25.25;;;4.50;99.90;;;;;;5093561;28;20227;-77
2022/12/02 11:52:59;;;;;;;36.42;24.33;;;4.60;99.90;;;;;;5079877;28;20223;-76
2022/12/02 11:55:35;;;;;;;35.05;23.60;;;4.60;99.90;;;;;;5073114;28;20224;-76
2022/12/02 11:58:03;;;;;;;32.80;22.77;;;4.60;99.90;;;;;;5073195;28;20350;-77
2022/12/02 12:00:33;;;;;;;40.50;24.15;;;4.50;99.90;;;;;;5073618;28;20678;-77
2022/12/02 12:03:15;;;;;;;40.88;23.65;;;4.60;99.90;;;;;;5072191;28;20314;-77
2022/12/02 12:05:44;;;;;;;41.47;23.70;;;4.50;99.90;;;;;;5073977;28;20245;-77
2022/12/02 12:08:25;;;;;;;38.50;23.42;;;4.50;99.90;;;;;;5071731;28;20307;-78
2022/12/02 12:11:17;;;;;;;35.85;24.60;;;4.50;99.90;;;;;;5072384;28;20224;-77
2022/12/02 12:14:22;;;;;;;34.75;23.95;;;4.40;99.90;;;;;;5072777;28;20733;-77
2022/12/02 12:16:50;;;;;;;36.55;25.02;;;4.30;99.90;;;;;;5032138;28;20231;-76
2022/12/02 12:19:26;;;;;;;42.13;25.17;;;4.30;99.90;;;;;;5072880;28;20277;-77
2022/12/02 12:21:54;;;;;;;37.55;25.33;;;4.20;99.90;;;;;;5072629;28;20224;-77
2022/12/02 12:24:34;;;;;;;42.00;24.88;;;4.20;99.90;;;;;;5072983;28;20285;-77
2022/12/02 12:27:13;;;;;;;38.80;24.92;;;4.20;99.90;;;;;;5072716;28;20609;-77
2022/12/02 12:29:41;;;;;;;40.20;26.05;;;4.20;99.90;;;;;;5060568;28;20243;-76
2022/12/02 12:32:10;;;;;;;41.33;27.90;;;4.10;99.90;;;;;;5072240;28;20231;-77
2022/12/02 12:34:38;;;;;;;40.03;25.05;;;4.10;99.90;;;;;;5072611;28;20231;-76
2022/12/02 12:37:06;;;;;;;33.95;22.02;;;4.20;99.90;;;;;;5072331;28;20300;-76
2022/12/02 12:39:33;;;;;;;42.65;26.83;;;4.20;99.90;;;;;;5071747;28;20654;-77
2022/12/02 12:42:00;;;;;;;41.70;26.70;;;4.30;99.90;;;;;;5072684;28;20262;-79
2022/12/02 12:44:28;;;;;;;36.63;23.88;;;4.30;99.90;;;;;;5073003;28;20665;-78
2022/12/02 12:46:57;;;;;;;39.78;25.55;;;4.30;99.90;;;;;;5071958;28;20315;-77
2022/12/02 12:49:25;;;;;;;36.90;23.45;;;4.30;99.90;;;;;;5072849;28;20227;-76
2022/12/02 12:51:52;;;;;;;39.05;26.10;;;4.30;99.90;;;;;;5061433;28;20239;-78
2022/12/02 12:54:19;;;;;;;40.42;26.38;;;4.30;99.90;;;;;;5071694;28;20293;-77
2022/12/02 12:56:46;;;;;;;41.40;25.63;;;4.30;99.90;;;;;;5071560;28;20224;-76